sensor_id;sensor_type;location;lat;lon;timestamp;pressure;altitude;pressure_sealevel;temperature;humidity
38852;BME280;24605;50.092;9.182;2023-02-03T00:01:37;98878.84;;;5.06;100.00
38852;BME280;24605;50.092;9.182;2023-02-03T00:04:04;98913.19;;;5.23;100.00
38852;BME280;24605;50.092;9.182;2023-02-03T00:06:32;98899.94;;;5.14;100.00
38852;BME280;24605;50.092;9.182;2023-02-03T00:08:58;98912.53;;;5.32;100.00
38852;BME280;24605;50.092;9.182;2023-02-03T00:11:26;98892.84;;;5.16;100.00
38852;BME280;24605;50.092;9.182;2023-02-03T00:13:57;98898.81;;;5.30;100.00
38852;BME280;24605;50.092;9.182;2023-02-03T00:16:24;98889.47;;;5.27;100.00
38852;BME280;24605;50.092;9.182;2023-02-03T00:18:50;98889.47;;;5.27;100.00
38852;BME280;24605;50.092;9.182;2023-02-03T00:21:17;98875.13;;;5.22;100.00
38852;BME280;24605;50.092;9.182;2023-02-03T00:23:45;98891.72;;;5.32;100.00
38852;BME280;24605;50.092;9.182;2023-02-03T00:26:13;98891.00;;;5.30;100.00
38852;BME280;24605;50.092;9.182;2023-02-03T00:28:40;98886.53;;;5.32;100.00
38852;BME280;24605;50.092;9.182;2023-02-03T00:31:13;98869.06;;;5.34;100.00
38852;BME280;24605;50.092;9.182;2023-02-03T00:33:40;98844.88;;;5.21;100.00
38852;BME280;24605;50.092;9.182;2023-02-03T00:36:07;98860.25;;;5.24;100.00
38852;BME280;24605;50.092;9.182;2023-02-03T00:38:34;98877.91;;;5.31;100.00
38852;BME280;24605;50.092;9.182;2023-02-03T00:41:02;98830.53;;;5.04;100.00
38852;BME280;24605;50.092;9.182;2023-02-03T00:43:29;98872.31;;;5.25;100.00
38852;BME280;24605;50.092;9.182;2023-02-03T00:45:56;98841.16;;;5.00;100.00
38852;BME280;24605;50.092;9.182;2023-02-03T00:48:22;98880.94;;;5.25;100.00
38852;BME280;24605;50.092;9.182;2023-02-03T00:50:49;98892.91;;;5.28;100.00
38852;BME280;24605;50.092;9.182;2023-02-03T00:53:15;98889.47;;;5.27;100.00
38852;BME280;24605;50.092;9.182;2023-02-03T00:55:42;98884.25;;;5.27;100.00
38852;BME280;24605;50.092;9.182;2023-02-03T00:58:10;98880.72;;;5.28;100.00
38852;BME280;24605;50.092;9.182;2023-02-03T01:00:37;98871.66;;;5.34;100.00
38852;BME280;24605;50.092;9.182;2023-02-03T01:03:04;98853.31;;;5.24;100.00
38852;BME280;24605;50.092;9.182;2023-02-03T01:05:30;98839.47;;;5.24;100.00
38852;BME280;24605;50.092;9.182;2023-02-03T01:07:57;98845.66;;;5.34;100.00
38852;BME280;24605;50.092;9.182;2023-02-03T01:10:24;98839.13;;;5.28;100.00
38852;BME280;24605;50.092;9.182;2023-02-03T01:12:50;98836.53;;;5.28;100.00
38852;BME280;24605;50.092;9.182;2023-02-03T01:15:18;98855.56;;;5.29;100.00
38852;BME280;24605;50.092;9.182;2023-02-03T01:17:45;98828.28;;;5.34;100.00
38852;BME280;24605;50.092;9.182;2023-02-03T01:20:12;98816.91;;;5.24;100.00
38852;BME280;24605;50.092;9.182;2023-02-03T01:22:41;98833.13;;;5.39;100.00
38852;BME280;24605;50.092;9.182;2023-02-03T01:25:08;98789.34;;;5.22;100.00
38852;BME280;24605;50.092;9.182;2023-02-03T01:27:34;98814.94;;;5.39;100.00
38852;BME280;24605;50.092;9.182;2023-02-03T01:30:01;98835.97;;;5.36;100.00
38852;BME280;24605;50.092;9.182;2023-02-03T01:32:29;98830.06;;;5.34;100.00
38852;BME280;24605;50.092;9.182;2023-02-03T01:34:55;98838.25;;;5.41;100.00
38852;BME280;24605;50.092;9.182;2023-02-03T01:37:22;98827.84;;;5.41;100.00
38852;BME280;24605;50.092;9.182;2023-02-03T01:39:48;98791.25;;;5.20;100.00
38852;BME280;24605;50.092;9.182;2023-02-03T01:42:15;98796.00;;;5.26;100.00
38852;BME280;24605;50.092;9.182;2023-02-03T01:44:44;98783.69;;;5.16;100.00
38852;BME280;24605;50.092;9.182;2023-02-03T01:47:27;98788.91;;;5.28;100.00
38852;BME280;24605;50.092;9.182;2023-02-03T01:50:10;98791.28;;;5.31;100.00
38852;BME280;24605;50.092;9.182;2023-02-03T01:52:39;98782.75;;;5.17;100.00
38852;BME280;24605;50.092;9.182;2023-02-03T01:55:10;98806.31;;;5.39;100.00
38852;BME280;24605;50.092;9.182;2023-02-03T01:57:42;98817.09;;;5.45;100.00
38852;BME280;24605;50.092;9.182;2023-02-03T02:00:12;98822.31;;;5.57;100.00
38852;BME280;24605;50.092;9.182;2023-02-03T02:02:40;98822.56;;;5.54;100.00
38852;BME280;24605;50.092;9.182;2023-02-03T02:05:14;98809.28;;;5.45;100.00
38852;BME280;24605;50.092;9.182;2023-02-03T02:07:43;98786.25;;;5.41;100.00
38852;BME280;24605;50.092;9.182;2023-02-03T02:10:11;98786.13;;;5.42;100.00
38852;BME280;24605;50.092;9.182;2023-02-03T02:12:37;98798.66;;;5.48;100.00
38852;BME280;24605;50.092;9.182;2023-02-03T02:15:05;98803.41;;;5.55;100.00
38852;BME280;24605;50.092;9.182;2023-02-03T02:17:43;98802.44;;;5.56;100.00
38852;BME280;24605;50.092;9.182;2023-02-03T02:20:41;98796.19;;;5.58;100.00
38852;BME280;24605;50.092;9.182;2023-02-03T02:23:37;98795.34;;;5.58;100.00
38852;BME280;24605;50.092;9.182;2023-02-03T02:26:27;98762.25;;;5.37;100.00
38852;BME280;24605;50.092;9.182;2023-02-03T02:29:26;98801.06;;;5.63;100.00
38852;BME280;24605;50.092;9.182;2023-02-03T02:32:05;98814.06;;;5.63;100.00
38852;BME280;24605;50.092;9.182;2023-02-03T02:34:47;98807.91;;;5.64;100.00
38852;BME280;24605;50.092;9.182;2023-02-03T02:37:24;98818.56;;;5.72;100.00
38852;BME280;24605;50.092;9.182;2023-02-03T02:39:57;98816.66;;;5.63;100.00
38852;BME280;24605;50.092;9.182;2023-02-03T02:42:34;98773.69;;;5.46;100.00
38852;BME280;24605;50.092;9.182;2023-02-03T02:45:07;98773.09;;;5.42;100.00
38852;BME280;24605;50.092;9.182;2023-02-03T02:47:37;98819.59;;;5.58;100.00
38852;BME280;24605;50.092;9.182;2023-02-03T02:50:08;98815.56;;;5.54;100.00
38852;BME280;24605;50.092;9.182;2023-02-03T02:52:40;98823.28;;;5.67;100.00
38852;BME280;24605;50.092;9.182;2023-02-03T02:55:12;98816.25;;;5.45;100.00
38852;BME280;24605;50.092;9.182;2023-02-03T02:57:41;98779.91;;;5.21;100.00
38852;BME280;24605;50.092;9.182;2023-02-03T03:00:08;98817.19;;;5.44;100.00
38852;BME280;24605;50.092;9.182;2023-02-03T03:02:36;98793.28;;;5.27;100.00
38852;BME280;24605;50.092;9.182;2023-02-03T03:05:05;98829.38;;;5.43;100.00
38852;BME280;24605;50.092;9.182;2023-02-03T03:07:37;98829.75;;;5.50;100.00
38852;BME280;24605;50.092;9.182;2023-02-03T03:10:09;98789.13;;;5.25;100.00
38852;BME280;24605;50.092;9.182;2023-02-03T03:12:39;98819.44;;;5.48;100.00
38852;BME280;24605;50.092;9.182;2023-02-03T03:15:10;98808.22;;;5.48;100.00
38852;BME280;24605;50.092;9.182;2023-02-03T03:17:42;98789.66;;;5.41;100.00
38852;BME280;24605;50.092;9.182;2023-02-03T03:20:16;98800.31;;;5.49;100.00
38852;BME280;24605;50.092;9.182;2023-02-03T03:22:48;98813.31;;;5.49;100.00
38852;BME280;24605;50.092;9.182;2023-02-03T03:25:18;98808.59;;;5.55;100.00
38852;BME280;24605;50.092;9.182;2023-02-03T03:27:49;98770.00;;;5.26;100.00
38852;BME280;24605;50.092;9.182;2023-02-03T03:30:21;98799.47;;;5.38;100.00
38852;BME280;24605;50.092;9.182;2023-02-03T03:32:50;98783.00;;;5.26;100.00
38852;BME280;24605;50.092;9.182;2023-02-03T03:35:18;98808.19;;;5.37;100.00
38852;BME280;24605;50.092;9.182;2023-02-03T03:37:50;98753.41;;;5.04;100.00
38852;BME280;24605;50.092;9.182;2023-02-03T03:40:23;98802.78;;;5.40;100.00
38852;BME280;24605;50.092;9.182;2023-02-03T03:42:55;98780.66;;;5.34;100.00
38852;BME280;24605;50.092;9.182;2023-02-03T03:45:26;98750.38;;;5.22;100.00
38852;BME280;24605;50.092;9.182;2023-02-03T03:48:00;98781.47;;;5.34;100.00
38852;BME280;24605;50.092;9.182;2023-02-03T03:50:31;98751.44;;;5.19;100.00
38852;BME280;24605;50.092;9.182;2023-02-03T03:53:01;98777.94;;;5.36;100.00
38852;BME280;24605;50.092;9.182;2023-02-03T03:55:31;98788.81;;;5.29;100.00
38852;BME280;24605;50.092;9.182;2023-02-03T03:58:05;98807.13;;;5.28;100.00
38852;BME280;24605;50.092;9.182;2023-02-03T04:00:34;98790.53;;;5.17;100.00
38852;BME280;24605;50.092;9.182;2023-02-03T04:03:09;98802.84;;;5.27;100.00
38852;BME280;24605;50.092;9.182;2023-02-03T04:05:38;98784.06;;;5.34;100.00
38852;BME280;24605;50.092;9.182;2023-02-03T04:08:05;98766.00;;;5.33;100.00
38852;BME280;24605;50.092;9.182;2023-02-03T04:10:33;98736.91;;;5.16;100.00
38852;BME280;24605;50.092;9.182;2023-02-03T04:13:00;98707.47;;;5.05;100.00
38852;BME280;24605;50.092;9.182;2023-02-03T04:15:27;98719.38;;;5.07;100.00
38852;BME280;24605;50.092;9.182;2023-02-03T04:17:55;98774.97;;;5.29;100.00
38852;BME280;24605;50.092;9.182;2023-02-03T04:20:23;98777.81;;;5.26;100.00
38852;BME280;24605;50.092;9.182;2023-02-03T04:22:50;98793.66;;;5.34;100.00
38852;BME280;24605;50.092;9.182;2023-02-03T04:25:17;98771.28;;;5.20;100.00
38852;BME280;24605;50.092;9.182;2023-02-03T04:27:43;98791.28;;;5.31;100.00
38852;BME280;24605;50.092;9.182;2023-02-03T04:30:11;98776.28;;;5.23;100.00
38852;BME280;24605;50.092;9.182;2023-02-03T04:32:38;98770.81;;;5.26;100.00
38852;BME280;24605;50.092;9.182;2023-02-03T04:35:06;98771.91;;;5.35;100.00
38852;BME280;24605;50.092;9.182;2023-02-03T04:37:34;98791.66;;;5.38;100.00
38852;BME280;24605;50.092;9.182;2023-02-03T04:40:01;98763.63;;;5.30;100.00
38852;BME280;24605;50.092;9.182;2023-02-03T04:42:27;98781.38;;;5.36;100.00
38852;BME280;24605;50.092;9.182;2023-02-03T04:44:54;98798.25;;;5.30;100.00
38852;BME280;24605;50.092;9.182;2023-02-03T04:47:21;98768.09;;;5.16;100.00
38852;BME280;24605;50.092;9.182;2023-02-03T04:49:48;98739.06;;;4.98;100.00
38852;BME280;24605;50.092;9.182;2023-02-03T04:52:14;98814.13;;;5.39;100.00
38852;BME280;24605;50.092;9.182;2023-02-03T04:54:42;98746.66;;;5.01;100.00
38852;BME280;24605;50.092;9.182;2023-02-03T04:57:09;98791.19;;;5.32;100.00
38852;BME280;24605;50.092;9.182;2023-02-03T04:59:35;98782.06;;;5.27;100.00
38852;BME280;24605;50.092;9.182;2023-02-03T05:02:02;98765.28;;;5.20;100.00
38852;BME280;24605;50.092;9.182;2023-02-03T05:04:29;98790.47;;;5.30;100.00
38852;BME280;24605;50.092;9.182;2023-02-03T05:06:56;98797.66;;;5.27;100.00
38852;BME280;24605;50.092;9.182;2023-02-03T05:09:22;98784.75;;;5.14;100.00
38852;BME280;24605;50.092;9.182;2023-02-03T05:11:50;98784.34;;;5.07;100.00
38852;BME280;24605;50.092;9.182;2023-02-03T05:14:17;98788.88;;;5.16;100.00
38852;BME280;24605;50.092;9.182;2023-02-03T05:16:44;98754.31;;;5.03;100.00
38852;BME280;24605;50.092;9.182;2023-02-03T05:19:10;98780.16;;;5.17;100.00
38852;BME280;24605;50.092;9.182;2023-02-03T05:21:37;98771.50;;;5.17;100.00
38852;BME280;24605;50.092;9.182;2023-02-03T05:24:04;98762.03;;;5.05;100.00
38852;BME280;24605;50.092;9.182;2023-02-03T05:26:32;98777.88;;;5.13;100.00
38852;BME280;24605;50.092;9.182;2023-02-03T05:28:59;98764.16;;;5.11;100.00
38852;BME280;24605;50.092;9.182;2023-02-03T05:31:26;98755.78;;;5.07;100.00
38852;BME280;24605;50.092;9.182;2023-02-03T05:33:53;98772.19;;;5.08;100.00
38852;BME280;24605;50.092;9.182;2023-02-03T05:36:19;98717.78;;;4.82;100.00
38852;BME280;24605;50.092;9.182;2023-02-03T05:38:46;98746.09;;;5.09;100.00
38852;BME280;24605;50.092;9.182;2023-02-03T05:41:12;98723.88;;;5.05;100.00
38852;BME280;24605;50.092;9.182;2023-02-03T05:43:56;98748.34;;;5.14;100.00
38852;BME280;24605;50.092;9.182;2023-02-03T05:46:24;98748.56;;;5.11;100.00
38852;BME280;24605;50.092;9.182;2023-02-03T05:48:50;98751.06;;;5.12;100.00
38852;BME280;24605;50.092;9.182;2023-02-03T05:51:17;98734.84;;;5.09;100.00
38852;BME280;24605;50.092;9.182;2023-02-03T05:53:43;98749.50;;;5.10;100.00
38852;BME280;24605;50.092;9.182;2023-02-03T05:56:10;98756.84;;;5.16;100.00
38852;BME280;24605;50.092;9.182;2023-02-03T05:58:36;98744.56;;;5.18;100.00
38852;BME280;24605;50.092;9.182;2023-02-03T06:01:05;98751.09;;;5.24;100.00
38852;BME280;24605;50.092;9.182;2023-02-03T06:18:01;98754.06;;;5.30;100.00
38852;BME280;24605;50.092;9.182;2023-02-03T06:20:28;98748.88;;;5.30;100.00
38852;BME280;24605;50.092;9.182;2023-02-03T06:22:56;98667.47;;;4.83;100.00
38852;BME280;24605;50.092;9.182;2023-02-03T06:25:23;98738.47;;;5.30;100.00
38852;BME280;24605;50.092;9.182;2023-02-03T06:27:49;98632.03;;;4.70;100.00
38852;BME280;24605;50.092;9.182;2023-02-03T06:30:16;98728.44;;;5.37;100.00
38852;BME280;24605;50.092;9.182;2023-02-03T06:32:44;98635.72;;;4.79;100.00
38852;BME280;24605;50.092;9.182;2023-02-03T06:35:12;98707.03;;;5.22;100.00
38852;BME280;24605;50.092;9.182;2023-02-03T06:37:38;98663.84;;;4.97;100.00
38852;BME280;24605;50.092;9.182;2023-02-03T06:40:06;98735.75;;;5.43;100.00
38852;BME280;24605;50.092;9.182;2023-02-03T06:42:32;98675.44;;;5.04;100.00
38852;BME280;24605;50.092;9.182;2023-02-03T06:44:59;98742.28;;;5.49;100.00
38852;BME280;24605;50.092;9.182;2023-02-03T06:47:25;98746.16;;;5.43;100.00
38852;BME280;24605;50.092;9.182;2023-02-03T06:49:52;98707.59;;;5.14;100.00
38852;BME280;24605;50.092;9.182;2023-02-03T06:52:20;98765.91;;;5.46;100.00
38852;BME280;24605;50.092;9.182;2023-02-03T06:54:46;98772.16;;;5.43;100.00
38852;BME280;24605;50.092;9.182;2023-02-03T06:57:13;98761.78;;;5.43;100.00
38852;BME280;24605;50.092;9.182;2023-02-03T06:59:39;98667.94;;;4.77;100.00
38852;BME280;24605;50.092;9.182;2023-02-03T07:02:05;98763.88;;;5.38;100.00
38852;BME280;24605;50.092;9.182;2023-02-03T07:04:32;98693.38;;;4.96;100.00
38852;BME280;24605;50.092;9.182;2023-02-03T07:06:58;98776.53;;;5.43;100.00
38852;BME280;24605;50.092;9.182;2023-02-03T07:09:26;98761.63;;;5.45;100.00
38852;BME280;24605;50.092;9.182;2023-02-03T07:11:53;98759.16;;;5.43;100.00
38852;BME280;24605;50.092;9.182;2023-02-03T07:14:19;98757.28;;;5.45;100.00
38852;BME280;24605;50.092;9.182;2023-02-03T07:16:45;98759.16;;;5.43;100.00
38852;BME280;24605;50.092;9.182;2023-02-03T07:19:12;98759.28;;;5.42;100.00
38852;BME280;24605;50.092;9.182;2023-02-03T07:21:38;98753.13;;;5.43;100.00
38852;BME280;24605;50.092;9.182;2023-02-03T07:24:05;98677.91;;;4.94;100.00
38852;BME280;24605;50.092;9.182;2023-02-03T07:26:33;98736.94;;;5.39;100.00
38852;BME280;24605;50.092;9.182;2023-02-03T07:28:59;98758.22;;;5.44;100.00
38852;BME280;24605;50.092;9.182;2023-02-03T07:31:26;98768.38;;;5.47;100.00
38852;BME280;24605;50.092;9.182;2023-02-03T07:33:52;98767.22;;;5.52;100.00
38852;BME280;24605;50.092;9.182;2023-02-03T07:36:19;98759.41;;;5.52;100.00
38852;BME280;24605;50.092;9.182;2023-02-03T07:38:45;98752.44;;;5.41;100.00
38852;BME280;24605;50.092;9.182;2023-02-03T07:41:12;98774.78;;;5.55;100.00
38852;BME280;24605;50.092;9.182;2023-02-03T07:43:39;98751.25;;;5.45;100.00
38852;BME280;24605;50.092;9.182;2023-02-03T07:46:07;98770.78;;;5.62;100.00
38852;BME280;24605;50.092;9.182;2023-02-03T07:48:34;98770.66;;;5.63;100.00
38852;BME280;24605;50.092;9.182;2023-02-03T07:51:00;98773.97;;;5.65;100.00
38852;BME280;24605;50.092;9.182;2023-02-03T07:53:27;98765.81;;;5.70;100.00
38852;BME280;24605;50.092;9.182;2023-02-03T07:55:54;98772.69;;;5.71;100.00
38852;BME280;24605;50.092;9.182;2023-02-03T07:58:20;98780.13;;;5.76;100.00
38852;BME280;24605;50.092;9.182;2023-02-03T08:00:48;98738.97;;;5.47;100.00
38852;BME280;24605;50.092;9.182;2023-02-03T08:03:14;98778.69;;;5.72;100.00
38852;BME280;24605;50.092;9.182;2023-02-03T08:05:41;98771.97;;;5.69;100.00
38852;BME280;24605;50.092;9.182;2023-02-03T08:08:07;98767.94;;;5.65;100.00
38852;BME280;24605;50.092;9.182;2023-02-03T08:10:34;98788.97;;;5.73;100.00
38852;BME280;24605;50.092;9.182;2023-02-03T08:13:00;98781.19;;;5.73;100.00
38852;BME280;24605;50.092;9.182;2023-02-03T08:15:27;98769.25;;;5.82;100.00
38852;BME280;24605;50.092;9.182;2023-02-03T08:17:55;98780.47;;;5.83;100.00
38852;BME280;24605;50.092;9.182;2023-02-03T08:20:21;98749.94;;;5.73;100.00
38852;BME280;24605;50.092;9.182;2023-02-03T08:22:47;98781.56;;;5.91;100.00
38852;BME280;24605;50.092;9.182;2023-02-03T08:25:14;98718.03;;;5.60;100.00
38852;BME280;24605;50.092;9.182;2023-02-03T08:27:41;98777.28;;;5.90;100.00
38852;BME280;24605;50.092;9.182;2023-02-03T08:30:11;98746.06;;;5.79;100.00
38852;BME280;24605;50.092;9.182;2023-02-03T08:32:38;98729.38;;;5.59;100.00
38852;BME280;24605;50.092;9.182;2023-02-03T08:35:07;98776.63;;;6.00;100.00
38852;BME280;24605;50.092;9.182;2023-02-03T08:37:33;98774.56;;;5.92;100.00
38852;BME280;24605;50.092;9.182;2023-02-03T08:40:00;98745.34;;;5.88;100.00
38852;BME280;24605;50.092;9.182;2023-02-03T08:42:27;98779.41;;;5.96;100.00
38852;BME280;24605;50.092;9.182;2023-02-03T08:44:53;98774.81;;;6.00;100.00
38852;BME280;24605;50.092;9.182;2023-02-03T08:47:20;98774.09;;;5.98;100.00
38852;BME280;24605;50.092;9.182;2023-02-03T08:49:46;98772.72;;;6.05;100.00
38852;BME280;24605;50.092;9.182;2023-02-03T08:52:14;98775.53;;;6.02;100.00
38852;BME280;24605;50.092;9.182;2023-02-03T08:54:41;98740.50;;;5.84;100.00
38852;BME280;24605;50.092;9.182;2023-02-03T08:57:08;98748.31;;;5.95;100.00
38852;BME280;24605;50.092;9.182;2023-02-03T08:59:37;98697.13;;;5.73;100.00
38852;BME280;24605;50.092;9.182;2023-02-03T09:02:05;98739.69;;;6.06;100.00
38852;BME280;24605;50.092;9.182;2023-02-03T09:04:34;98745.59;;;6.19;100.00
38852;BME280;24605;50.092;9.182;2023-02-03T09:07:00;98707.47;;;5.95;100.00
38852;BME280;24605;50.092;9.182;2023-02-03T09:09:30;98687.03;;;5.91;100.00
38852;BME280;24605;50.092;9.182;2023-02-03T09:11:56;98727.25;;;6.21;100.00
38852;BME280;24605;50.092;9.182;2023-02-03T09:14:26;98742.28;;;6.29;100.00
38852;BME280;24605;50.092;9.182;2023-02-03T09:16:53;98742.94;;;6.31;100.00
38852;BME280;24605;50.092;9.182;2023-02-03T09:19:19;98751.75;;;6.30;100.00
38852;BME280;24605;50.092;9.182;2023-02-03T09:21:46;98700.91;;;6.03;100.00
38852;BME280;24605;50.092;9.182;2023-02-03T09:24:13;98762.00;;;6.42;100.00
38852;BME280;24605;50.092;9.182;2023-02-03T09:26:41;98774.06;;;6.43;100.00
38852;BME280;24605;50.092;9.182;2023-02-03T09:29:07;98772.66;;;6.39;100.00
38852;BME280;24605;50.092;9.182;2023-02-03T09:31:34;98688.44;;;5.95;100.00
38852;BME280;24605;50.092;9.182;2023-02-03T09:34:01;98714.91;;;6.34;100.00
38852;BME280;24605;50.092;9.182;2023-02-03T09:36:27;98740.75;;;6.58;100.00
38852;BME280;24605;50.092;9.182;2023-02-03T09:38:55;98754.50;;;6.61;100.00
38852;BME280;24605;50.092;9.182;2023-02-03T09:41:33;98719.88;;;6.37;100.00
38852;BME280;24605;50.092;9.182;2023-02-03T09:44:12;98757.94;;;6.61;100.00
38852;BME280;24605;50.092;9.182;2023-02-03T09:46:43;98733.00;;;6.47;100.00
38852;BME280;24605;50.092;9.182;2023-02-03T09:49:16;98735.94;;;6.75;100.00
38852;BME280;24605;50.092;9.182;2023-02-03T09:51:47;98730.75;;;6.75;100.00
38852;BME280;24605;50.092;9.182;2023-02-03T09:54:19;98687.50;;;6.51;100.00
38852;BME280;24605;50.092;9.182;2023-02-03T09:56:48;98692.66;;;6.63;100.00
38852;BME280;24605;50.092;9.182;2023-02-03T09:59:18;98677.19;;;6.61;100.00
38852;BME280;24605;50.092;9.182;2023-02-03T10:01:51;98712.31;;;6.88;100.00
38852;BME280;24605;50.092;9.182;2023-02-03T10:04:25;98715.38;;;6.93;100.00
38852;BME280;24605;50.092;9.182;2023-02-03T10:06:57;98720.75;;;6.92;100.00
38852;BME280;24605;50.092;9.182;2023-02-03T10:09:36;98684.53;;;6.77;100.00
38852;BME280;24605;50.092;9.182;2023-02-03T10:12:33;98688.66;;;6.80;100.00
38852;BME280;24605;50.092;9.182;2023-02-03T10:15:18;98705.53;;;6.97;100.00
38852;BME280;24605;50.092;9.182;2023-02-03T10:17:53;98661.09;;;6.77;100.00
38852;BME280;24605;50.092;9.182;2023-02-03T10:20:24;98699.03;;;7.12;100.00
38852;BME280;24605;50.092;9.182;2023-02-03T10:22:55;98687.22;;;7.08;100.00
38852;BME280;24605;50.092;9.182;2023-02-03T10:25:29;98698.34;;;7.10;100.00
38852;BME280;24605;50.092;9.182;2023-02-03T10:27:59;98681.63;;;6.92;100.00
38852;BME280;24605;50.092;9.182;2023-02-03T10:30:34;98676.28;;;6.93;100.00
38852;BME280;24605;50.092;9.182;2023-02-03T10:33:11;98666.75;;;6.82;100.00
38852;BME280;24605;50.092;9.182;2023-02-03T10:35:48;98707.63;;;7.03;100.00
38852;BME280;24605;50.092;9.182;2023-02-03T10:38:22;98621.38;;;6.42;100.00
38852;BME280;24605;50.092;9.182;2023-02-03T10:40:50;98663.38;;;6.70;100.00
38852;BME280;24605;50.092;9.182;2023-02-03T10:43:17;98716.97;;;7.05;100.00
38852;BME280;24605;50.092;9.182;2023-02-03T10:46:03;98688.63;;;6.91;100.00
38852;BME280;24605;50.092;9.182;2023-02-03T10:48:29;98684.16;;;6.82;100.00
38852;BME280;24605;50.092;9.182;2023-02-03T10:50:56;98674.69;;;6.81;100.00
38852;BME280;24605;50.092;9.182;2023-02-03T10:53:24;98633.69;;;6.40;100.00
38852;BME280;24605;50.092;9.182;2023-02-03T10:56:01;98712.97;;;7.01;100.00
38852;BME280;24605;50.092;9.182;2023-02-03T10:58:29;98704.06;;;7.04;100.00
38852;BME280;24605;50.092;9.182;2023-02-03T11:01:05;98692.31;;;7.10;100.00
38852;BME280;24605;50.092;9.182;2023-02-03T11:03:34;98679.59;;;7.16;100.00
38852;BME280;24605;50.092;9.182;2023-02-03T11:06:07;98692.56;;;7.06;100.00
38852;BME280;24605;50.092;9.182;2023-02-03T11:08:39;98653.78;;;6.92;100.00
38852;BME280;24605;50.092;9.182;2023-02-03T11:11:09;98675.91;;;6.98;100.00
38852;BME280;24605;50.092;9.182;2023-02-03T11:13:43;98661.78;;;7.00;100.00
38852;BME280;24605;50.092;9.182;2023-02-03T11:16:13;98679.50;;;7.06;100.00
38852;BME280;24605;50.092;9.182;2023-02-03T11:18:51;98676.09;;;7.06;100.00
38852;BME280;24605;50.092;9.182;2023-02-03T11:21:20;98658.63;;;6.97;100.00
38852;BME280;24605;50.092;9.182;2023-02-03T11:23:54;98688.22;;;7.17;100.00
38852;BME280;24605;50.092;9.182;2023-02-03T11:26:24;98655.75;;;7.00;100.00
38852;BME280;24605;50.092;9.182;2023-02-03T11:28:55;98650.16;;;6.83;100.00
38852;BME280;24605;50.092;9.182;2023-02-03T11:31:25;98643.94;;;6.74;100.00
38852;BME280;24605;50.092;9.182;2023-02-03T11:33:57;98704.91;;;7.04;100.00
38852;BME280;24605;50.092;9.182;2023-02-03T11:36:27;98699.31;;;7.09;100.00
38852;BME280;24605;50.092;9.182;2023-02-03T11:39:18;98706.47;;;7.17;100.00
38852;BME280;24605;50.092;9.182;2023-02-03T11:41:46;98714.44;;;7.15;100.00
38852;BME280;24605;50.092;9.182;2023-02-03T11:44:19;98704.78;;;7.06;100.00
38852;BME280;24605;50.092;9.182;2023-02-03T11:46:49;98687.34;;;7.06;100.00
38852;BME280;24605;50.092;9.182;2023-02-03T11:49:39;98679.59;;;7.16;100.00
38852;BME280;24605;50.092;9.182;2023-02-03T11:52:22;98602.56;;;6.81;100.00
38852;BME280;24605;50.092;9.182;2023-02-03T11:54:58;98604.84;;;6.74;100.00
38852;BME280;24605;50.092;9.182;2023-02-03T11:57:35;98614.69;;;6.92;100.00
38852;BME280;24605;50.092;9.182;2023-02-03T12:00:22;98636.75;;;7.09;100.00
38852;BME280;24605;50.092;9.182;2023-02-03T12:06:02;98555.59;;;6.71;100.00
38852;BME280;24605;50.092;9.182;2023-02-03T12:08:47;98607.97;;;6.89;100.00
38852;BME280;24605;50.092;9.182;2023-02-03T12:11:30;98566.78;;;6.41;100.00
38852;BME280;24605;50.092;9.182;2023-02-03T12:14:11;98612.09;;;6.50;100.00
38852;BME280;24605;50.092;9.182;2023-02-03T12:17:10;98612.16;;;6.59;100.00
38852;BME280;24605;50.092;9.182;2023-02-03T12:19:55;98531.56;;;6.16;100.00
38852;BME280;24605;50.092;9.182;2023-02-03T12:22:31;98611.78;;;6.64;100.00
38852;BME280;24605;50.092;9.182;2023-02-03T12:25:08;98606.94;;;6.59;100.00
38852;BME280;24605;50.092;9.182;2023-02-03T12:27:48;98598.75;;;6.64;100.00
38852;BME280;24605;50.092;9.182;2023-02-03T12:30:18;98627.22;;;6.77;100.00
38852;BME280;24605;50.092;9.182;2023-02-03T12:32:51;98628.47;;;6.83;100.00
38852;BME280;24605;50.092;9.182;2023-02-03T12:35:24;98621.81;;;6.90;100.00
38852;BME280;24605;50.092;9.182;2023-02-03T12:37:57;98634.97;;;6.88;100.00
38852;BME280;24605;50.092;9.182;2023-02-03T12:40:29;98572.50;;;6.35;100.00
38852;BME280;24605;50.092;9.182;2023-02-03T12:43:09;98615.78;;;6.68;100.00
38852;BME280;24605;50.092;9.182;2023-02-03T12:45:39;98641.69;;;6.91;100.00
38852;BME280;24605;50.092;9.182;2023-02-03T12:48:10;98608.59;;;6.61;100.00
38852;BME280;24605;50.092;9.182;2023-02-03T12:50:41;98659.75;;;6.83;100.00
38852;BME280;24605;50.092;9.182;2023-02-03T12:53:13;98652.19;;;6.80;100.00
38852;BME280;24605;50.092;9.182;2023-02-03T12:55:44;98645.25;;;6.69;100.00
38852;BME280;24605;50.092;9.182;2023-02-03T12:58:19;98632.47;;;6.45;100.00
38852;BME280;24605;50.092;9.182;2023-02-03T13:00:53;98648.16;;;6.33;100.00
38852;BME280;24605;50.092;9.182;2023-02-03T13:03:26;98616.50;;;6.17;100.00
38852;BME280;24605;50.092;9.182;2023-02-03T13:06:01;98596.16;;;6.10;100.00
38852;BME280;24605;50.092;9.182;2023-02-03T13:08:33;98614.84;;;6.16;100.00
38852;BME280;24605;50.092;9.182;2023-02-03T13:11:14;98613.56;;;6.10;100.00
38852;BME280;24605;50.092;9.182;2023-02-03T13:13:49;98610.38;;;6.06;100.00
38852;BME280;24605;50.092;9.182;2023-02-03T13:16:22;98607.88;;;6.05;100.00
38852;BME280;24605;50.092;9.182;2023-02-03T13:18:52;98613.34;;;6.02;100.00
38852;BME280;24605;50.092;9.182;2023-02-03T13:21:22;98626.00;;;5.95;100.00
38852;BME280;24605;50.092;9.182;2023-02-03T13:23:49;98616.75;;;5.91;100.00
38852;BME280;24605;50.092;9.182;2023-02-03T13:26:38;98615.94;;;5.90;100.00
38852;BME280;24605;50.092;9.182;2023-02-03T13:29:30;98601.44;;;5.76;100.00
38852;BME280;24605;50.092;9.182;2023-02-03T13:32:12;98611.94;;;5.86;100.00
38852;BME280;24605;50.092;9.182;2023-02-03T13:34:51;98604.13;;;5.86;100.00